Time;durP1;ratioP1;P1;durP2;ratioP2;P2;SDS_P1;SDS_P2;PMS_P1;PMS_P2;Temp;Humidity;BMP_temperature;BMP_pressure;BME280_temperature;BME280_humidity;BME280_pressure;Samples;Min_cycle;Max_cycle;Signal;HPM_P1;HPM_P2
2020/12/31 00:01:56;;;;;;;0.38;0.38;;;;;;;;;;5018594;28;20377;-77
2020/12/31 00:04:22;;;;;;;0.30;0.30;;;;;;;;;;5001413;28;20041;-78
2020/12/31 00:06:47;;;;;;;0.40;0.40;;;;;;;;;;5011863;28;20006;-79
2020/12/31 00:09:12;;;;;;;0.30;0.30;;;;;;;;;;5022043;28;20014;-79
2020/12/31 00:11:38;;;;;;;0.30;0.30;;;;;;;;;;5019086;28;20318;-79
2020/12/31 00:14:07;;;;;;;0.30;0.30;;;;;;;;;;5019235;28;20025;-79
2020/12/31 00:16:32;;;;;;;0.30;0.30;;;;;;;;;;5021156;28;20045;-79
2020/12/31 00:18:58;;;;;;;0.30;0.30;;;;;;;;;;5017806;28;20026;-78
2020/12/31 00:21:23;;;;;;;0.30;0.30;;;;;;;;;;5000887;28;20088;-79
2020/12/31 00:23:49;;;;;;;0.30;0.30;;;;;;;;;;5018446;28;20083;-78
2020/12/31 00:26:14;;;;;;;0.30;0.30;;;;;;;;;;5029467;28;20022;-80
2020/12/31 00:28:40;;;;;;;0.20;0.20;;;;;;;;;;5034342;28;20021;-80
2020/12/31 00:31:05;;;;;;;0.40;0.40;;;;;;;;;;5031258;28;20106;-80
2020/12/31 00:33:30;;;;;;;0.40;0.40;;;;;;;;;;5037172;28;20426;-80
2020/12/31 00:35:55;;;;;;;0.30;0.30;;;;;;;;;;5020615;28;20009;-80
2020/12/31 00:38:24;;;;;;;0.30;0.30;;;;;;;;;;5029300;28;20152;-80
2020/12/31 00:40:50;;;;;;;0.30;0.30;;;;;;;;;;5032908;28;20010;-80
2020/12/31 00:43:15;;;;;;;0.30;0.30;;;;;;;;;;5035953;28;20014;-80
2020/12/31 00:45:40;;;;;;;0.30;0.30;;;;;;;;;;5035261;28;20042;-80
2020/12/31 00:48:05;;;;;;;0.30;0.30;;;;;;;;;;5036771;28;20029;-79
2020/12/31 00:50:30;;;;;;;0.38;0.38;;;;;;;;;;5015791;28;20835;-76
2020/12/31 00:52:56;;;;;;;0.30;0.30;;;;;;;;;;5019023;28;20101;-78
2020/12/31 00:55:21;;;;;;;0.30;0.30;;;;;;;;;;5016159;28;20057;-77
2020/12/31 00:57:46;;;;;;;0.30;0.30;;;;;;;;;;5002147;28;20061;-79
2020/12/31 01:00:12;;;;;;;0.30;0.30;;;;;;;;;;5024909;28;20094;-78
2020/12/31 01:02:37;;;;;;;0.35;0.35;;;;;;;;;;5000667;28;20466;-78
2020/12/31 01:05:07;;;;;;;0.25;0.25;;;;;;;;;;5016311;28;20050;-78
2020/12/31 01:07:32;;;;;;;0.30;0.30;;;;;;;;;;4999907;28;20100;-78
2020/12/31 01:09:57;;;;;;;0.30;0.30;;;;;;;;;;5016145;28;20073;-77
2020/12/31 01:12:22;;;;;;;0.30;0.30;;;;;;;;;;4999230;28;20109;-77
2020/12/31 01:14:48;;;;;;;0.30;0.30;;;;;;;;;;5017845;28;20264;-78
2020/12/31 01:17:13;;;;;;;0.30;0.30;;;;;;;;;;5015821;28;20098;-78
2020/12/31 01:19:39;;;;;;;0.30;0.30;;;;;;;;;;5016226;28;20030;-79
2020/12/31 01:22:04;;;;;;;0.25;0.25;;;;;;;;;;5019180;28;20025;-78
2020/12/31 01:24:33;;;;;;;0.30;0.30;;;;;;;;;;5015502;28;20029;-78
2020/12/31 01:26:58;;;;;;;0.25;0.25;;;;;;;;;;5016184;28;20026;-79
2020/12/31 01:29:23;;;;;;;0.30;0.30;;;;;;;;;;5017815;28;20029;-78
2020/12/31 01:31:49;;;;;;;0.30;0.30;;;;;;;;;;5001065;28;20036;-78
2020/12/31 01:34:14;;;;;;;0.30;0.30;;;;;;;;;;5017022;28;20021;-74
2020/12/31 01:36:39;;;;;;;0.30;0.30;;;;;;;;;;5013244;28;20662;-74
2020/12/31 01:39:05;;;;;;;0.30;0.30;;;;;;;;;;5013109;28;20115;-73
2020/12/31 01:41:30;;;;;;;0.33;0.33;;;;;;;;;;5014066;28;20021;-75
2020/12/31 01:44:01;;;;;;;0.30;0.30;;;;;;;;;;5013136;28;20694;-75
2020/12/31 01:46:26;;;;;;;0.30;0.30;;;;;;;;;;5014435;28;20379;-75
2020/12/31 01:48:52;;;;;;;0.30;0.30;;;;;;;;;;5010179;28;20010;-75
2020/12/31 01:51:17;;;;;;;0.30;0.30;;;;;;;;;;4977580;28;20030;-75
2020/12/31 01:53:42;;;;;;;0.30;0.30;;;;;;;;;;4976985;28;20314;-75
2020/12/31 01:56:07;;;;;;;0.30;0.30;;;;;;;;;;4977284;28;20266;-75
2020/12/31 01:58:33;;;;;;;0.30;0.30;;;;;;;;;;4995483;28;20032;-75
2020/12/31 02:00:58;;;;;;;0.32;0.32;;;;;;;;;;4996465;28;20037;-75
2020/12/31 02:03:23;;;;;;;0.40;0.40;;;;;;;;;;5013613;28;20028;-75
2020/12/31 02:05:49;;;;;;;0.40;0.40;;;;;;;;;;4996796;28;20415;-75
2020/12/31 02:08:14;;;;;;;0.40;0.40;;;;;;;;;;4996232;28;20018;-75
2020/12/31 02:10:39;;;;;;;0.40;0.40;;;;;;;;;;5013077;28;20264;-74
2020/12/31 02:13:04;;;;;;;0.30;0.30;;;;;;;;;;4996219;28;20268;-75
2020/12/31 02:15:30;;;;;;;0.30;0.30;;;;;;;;;;5013335;28;20264;-74
2020/12/31 02:17:55;;;;;;;0.30;0.30;;;;;;;;;;5013183;28;20540;-75
2020/12/31 02:20:20;;;;;;;0.30;0.30;;;;;;;;;;5012884;28;20092;-75
2020/12/31 02:22:46;;;;;;;0.40;0.40;;;;;;;;;;5012673;28;20060;-75
2020/12/31 02:25:11;;;;;;;0.30;0.30;;;;;;;;;;5013209;28;20680;-74
2020/12/31 02:27:36;;;;;;;0.30;0.30;;;;;;;;;;5012887;28;20018;-75
2020/12/31 02:30:01;;;;;;;0.30;0.30;;;;;;;;;;4995721;28;20033;-75
2020/12/31 02:32:26;;;;;;;0.40;0.40;;;;;;;;;;5012270;28;20644;-75
2020/12/31 02:34:51;;;;;;;0.30;0.30;;;;;;;;;;4995958;28;20022;-76
2020/12/31 02:37:17;;;;;;;0.30;0.30;;;;;;;;;;5013788;28;20289;-75
2020/12/31 02:39:42;;;;;;;0.40;0.40;;;;;;;;;;4995960;28;20532;-75
2020/12/31 02:42:08;;;;;;;0.30;0.30;;;;;;;;;;5011950;28;20026;-75
2020/12/31 02:44:33;;;;;;;0.30;0.30;;;;;;;;;;4995622;28;20725;-76
2020/12/31 02:46:58;;;;;;;0.30;0.30;;;;;;;;;;5013099;28;20045;-76
2020/12/31 02:49:24;;;;;;;0.23;0.23;;;;;;;;;;4996066;28;20014;-76
2020/12/31 02:51:49;;;;;;;0.30;0.30;;;;;;;;;;4995560;28;20268;-76
2020/12/31 02:54:14;;;;;;;0.30;0.30;;;;;;;;;;5011827;28;20050;-76
2020/12/31 02:56:40;;;;;;;0.30;0.30;;;;;;;;;;5011944;28;20795;-76
2020/12/31 02:59:05;;;;;;;0.30;0.30;;;;;;;;;;5012353;28;20026;-75
2020/12/31 03:01:31;;;;;;;0.40;0.40;;;;;;;;;;5013400;28;20076;-75
2020/12/31 03:03:56;;;;;;;0.30;0.30;;;;;;;;;;4995630;28;20018;-75
2020/12/31 03:06:21;;;;;;;0.30;0.30;;;;;;;;;;4995758;28;20056;-76
2020/12/31 03:08:47;;;;;;;0.30;0.30;;;;;;;;;;5012723;28;20093;-75
2020/12/31 03:11:13;;;;;;;0.30;0.30;;;;;;;;;;5013299;28;20149;-75
2020/12/31 03:13:38;;;;;;;0.40;0.40;;;;;;;;;;5013881;28;20026;-74
2020/12/31 03:16:04;;;;;;;0.30;0.30;;;;;;;;;;5014778;28;20030;-74
2020/12/31 03:18:29;;;;;;;0.20;0.20;;;;;;;;;;5014493;28;20049;-74
2020/12/31 03:20:55;;;;;;;0.38;0.38;;;;;;;;;;5015149;28;20033;-72
2020/12/31 03:23:20;;;;;;;0.25;0.25;;;;;;;;;;5015151;28;20116;-72
2020/12/31 03:25:46;;;;;;;0.30;0.30;;;;;;;;;;5013803;28;20575;-73
2020/12/31 03:28:14;;;;;;;0.40;0.40;;;;;;;;;;5012184;28;20024;-73
2020/12/31 03:30:40;;;;;;;0.30;0.30;;;;;;;;;;4996266;28;20099;-73
2020/12/31 03:33:05;;;;;;;0.30;0.30;;;;;;;;;;5013602;28;20049;-75
2020/12/31 03:35:31;;;;;;;0.30;0.30;;;;;;;;;;5012149;28;20072;-74
2020/12/31 03:37:56;;;;;;;0.30;0.30;;;;;;;;;;4995379;28;20026;-75
2020/12/31 03:40:22;;;;;;;0.30;0.30;;;;;;;;;;5012272;28;20022;-75
2020/12/31 03:42:47;;;;;;;0.40;0.40;;;;;;;;;;5012042;28;20406;-75
2020/12/31 03:45:12;;;;;;;0.30;0.30;;;;;;;;;;5012073;28;20504;-74
2020/12/31 03:47:38;;;;;;;0.40;0.40;;;;;;;;;;5011803;28;20018;-76
2020/12/31 03:50:04;;;;;;;0.30;0.30;;;;;;;;;;4994823;28;20048;-76
2020/12/31 03:52:29;;;;;;;0.30;0.30;;;;;;;;;;5012378;28;20037;-76
2020/12/31 03:54:54;;;;;;;0.30;0.30;;;;;;;;;;5011281;28;20054;-75
2020/12/31 03:57:20;;;;;;;0.40;0.40;;;;;;;;;;5013418;28;20022;-76
2020/12/31 03:59:45;;;;;;;0.30;0.30;;;;;;;;;;4995378;28;20303;-76
2020/12/31 04:02:10;;;;;;;0.30;0.30;;;;;;;;;;5011511;28;20363;-76
2020/12/31 04:04:35;;;;;;;0.30;0.30;;;;;;;;;;5011587;28;20026;-76
2020/12/31 04:07:01;;;;;;;0.30;0.30;;;;;;;;;;4995137;28;20276;-74
2020/12/31 04:09:26;;;;;;;0.30;0.30;;;;;;;;;;5011583;28;20102;-74
2020/12/31 04:11:52;;;;;;;0.30;0.30;;;;;;;;;;5011849;28;20533;-74
2020/12/31 04:14:17;;;;;;;0.30;0.30;;;;;;;;;;5014597;28;20026;-74
2020/12/31 04:16:43;;;;;;;0.20;0.20;;;;;;;;;;5016562;28;20022;-74
2020/12/31 04:19:08;;;;;;;0.30;0.30;;;;;;;;;;5016276;28;20112;-75
2020/12/31 04:21:34;;;;;;;0.30;0.30;;;;;;;;;;5015282;28;20032;-75
2020/12/31 04:24:00;;;;;;;0.40;0.40;;;;;;;;;;5015306;28;20140;-74
2020/12/31 04:26:25;;;;;;;0.30;0.30;;;;;;;;;;5015280;28;20029;-73
2020/12/31 04:28:50;;;;;;;0.30;0.30;;;;;;;;;;5015102;28;20253;-74
2020/12/31 04:31:16;;;;;;;0.30;0.30;;;;;;;;;;5015316;28;20260;-73
2020/12/31 04:33:41;;;;;;;0.30;0.30;;;;;;;;;;5015293;28;20072;-73
2020/12/31 04:36:06;;;;;;;0.30;0.30;;;;;;;;;;5015543;28;20268;-73
2020/12/31 04:38:31;;;;;;;0.30;0.30;;;;;;;;;;5014884;28;20085;-74
2020/12/31 04:40:57;;;;;;;0.20;0.20;;;;;;;;;;4998345;28;20288;-75
2020/12/31 04:43:22;;;;;;;0.22;0.22;;;;;;;;;;4998181;28;20022;-74
2020/12/31 04:45:47;;;;;;;0.30;0.30;;;;;;;;;;5015948;28;20052;-75
2020/12/31 04:48:26;;;;;;;0.30;0.30;;;;;;;;;;5014471;28;20014;-75
2020/12/31 04:50:51;;;;;;;0.30;0.30;;;;;;;;;;5014604;28;20104;-75
2020/12/31 04:53:16;;;;;;;0.30;0.30;;;;;;;;;;4997857;28;20060;-75
2020/12/31 04:55:43;;;;;;;0.25;0.25;;;;;;;;;;5014131;28;20078;-75
2020/12/31 04:58:09;;;;;;;0.30;0.30;;;;;;;;;;5014667;28;20034;-74
2020/12/31 05:00:35;;;;;;;0.28;0.28;;;;;;;;;;5014381;28;20026;-75
2020/12/31 05:03:00;;;;;;;0.30;0.30;;;;;;;;;;5014367;28;20014;-75
2020/12/31 05:05:25;;;;;;;0.30;0.30;;;;;;;;;;5014549;28;20459;-75
2020/12/31 05:07:51;;;;;;;0.30;0.30;;;;;;;;;;5014198;28;20085;-75
2020/12/31 05:10:16;;;;;;;0.33;0.33;;;;;;;;;;5014410;28;20025;-75
2020/12/31 05:12:42;;;;;;;0.30;0.30;;;;;;;;;;5014836;28;20271;-75
2020/12/31 05:15:07;;;;;;;0.30;0.30;;;;;;;;;;5014187;28;20037;-75
2020/12/31 05:17:33;;;;;;;0.32;0.32;;;;;;;;;;5015658;28;20026;-75
2020/12/31 05:19:58;;;;;;;0.30;0.30;;;;;;;;;;5013949;28;20478;-75
2020/12/31 05:22:24;;;;;;;0.38;0.38;;;;;;;;;;5014235;28;20018;-73
2020/12/31 05:24:50;;;;;;;0.40;0.40;;;;;;;;;;5013800;28;20393;-73
2020/12/31 05:27:28;;;;;;;0.40;0.40;;;;;;;;;;5013793;28;20018;-73
2020/12/31 05:29:57;;;;;;;0.30;0.30;;;;;;;;;;5015112;28;20044;-75
2020/12/31 05:32:23;;;;;;;0.30;0.30;;;;;;;;;;5013981;28;20061;-75
2020/12/31 05:34:49;;;;;;;0.30;0.30;;;;;;;;;;5013780;28;20065;-74
2020/12/31 05:37:14;;;;;;;0.30;0.30;;;;;;;;;;4997543;28;20390;-73
2020/12/31 05:39:53;;;;;;;0.30;0.30;;;;;;;;;;5013569;28;20076;-74
2020/12/31 05:42:19;;;;;;;0.30;0.30;;;;;;;;;;4997490;28;20108;-74
2020/12/31 05:45:00;;;;;;;0.30;0.30;;;;;;;;;;5013322;28;20024;-76
2020/12/31 05:47:26;;;;;;;0.40;0.40;;;;;;;;;;5013689;28;20418;-75
2020/12/31 05:49:52;;;;;;;0.30;0.30;;;;;;;;;;5013470;28;20026;-74
2020/12/31 05:52:31;;;;;;;0.30;0.30;;;;;;;;;;5013256;28;20021;-74
2020/12/31 05:54:56;;;;;;;0.20;0.20;;;;;;;;;;5013915;28;20096;-74
2020/12/31 05:57:21;;;;;;;0.37;0.37;;;;;;;;;;4997824;28;20356;-74
2020/12/31 05:59:47;;;;;;;0.30;0.30;;;;;;;;;;4997958;28;20284;-74
2020/12/31 06:02:12;;;;;;;0.30;0.30;;;;;;;;;;5013616;28;20295;-74
2020/12/31 06:04:45;;;;;;;0.30;0.30;;;;;;;;;;5013529;28;20409;-74
2020/12/31 06:07:13;;;;;;;0.30;0.30;;;;;;;;;;5014427;28;20025;-74
2020/12/31 06:09:39;;;;;;;0.30;0.30;;;;;;;;;;5013268;28;20040;-76
2020/12/31 06:12:08;;;;;;;0.40;0.40;;;;;;;;;;5013529;28;20018;-74
2020/12/31 06:14:34;;;;;;;0.32;0.32;;;;;;;;;;4997044;28;20537;-75
2020/12/31 06:17:01;;;;;;;0.30;0.30;;;;;;;;;;5013107;28;20058;-75
2020/12/31 06:19:26;;;;;;;0.30;0.30;;;;;;;;;;5012961;28;20026;-74
2020/12/31 06:21:57;;;;;;;0.30;0.30;;;;;;;;;;5012904;28;20028;-74
2020/12/31 06:24:22;;;;;;;0.30;0.30;;;;;;;;;;5012862;28;20347;-74
2020/12/31 06:26:47;;;;;;;0.40;0.40;;;;;;;;;;5013122;28;20103;-74
2020/12/31 06:29:13;;;;;;;0.30;0.30;;;;;;;;;;5012921;28;20257;-74
2020/12/31 06:31:39;;;;;;;0.40;0.40;;;;;;;;;;5014253;28;20273;-74
2020/12/31 06:34:05;;;;;;;0.30;0.30;;;;;;;;;;5013020;28;20591;-74
2020/12/31 06:36:34;;;;;;;0.30;0.30;;;;;;;;;;4995994;28;20028;-74
2020/12/31 06:38:59;;;;;;;0.30;0.30;;;;;;;;;;5012358;28;20295;-74
2020/12/31 06:41:31;;;;;;;0.30;0.30;;;;;;;;;;4996551;28;20494;-74
2020/12/31 06:44:05;;;;;;;0.30;0.30;;;;;;;;;;5013621;28;20093;-74
2020/12/31 06:46:30;;;;;;;0.30;0.30;;;;;;;;;;5012428;28;20022;-74
2020/12/31 06:48:55;;;;;;;0.30;0.30;;;;;;;;;;5012407;28;20034;-74
2020/12/31 06:51:25;;;;;;;0.30;0.30;;;;;;;;;;4995517;28;20041;-75
2020/12/31 06:53:50;;;;;;;0.30;0.30;;;;;;;;;;5011810;28;20046;-75
2020/12/31 06:56:15;;;;;;;0.30;0.30;;;;;;;;;;5012543;28;20036;-75
2020/12/31 06:58:42;;;;;;;0.30;0.30;;;;;;;;;;5012494;28;20413;-75
2020/12/31 07:01:40;;;;;;;0.30;0.30;;;;;;;;;;5012237;28;20034;-74
2020/12/31 07:04:05;;;;;;;0.40;0.40;;;;;;;;;;4979637;28;20117;-74
2020/12/31 07:06:32;;;;;;;0.30;0.30;;;;;;;;;;5012530;28;20069;-74
2020/12/31 07:09:01;;;;;;;0.35;0.35;;;;;;;;;;5012491;28;20322;-74
2020/12/31 07:11:35;;;;;;;0.40;0.40;;;;;;;;;;5012485;28;20021;-74
2020/12/31 07:14:02;;;;;;;0.30;0.30;;;;;;;;;;5012017;28;20823;-74
2020/12/31 07:16:59;;;;;;;0.30;0.30;;;;;;;;;;5012544;28;20049;-74
2020/12/31 07:19:28;;;;;;;0.28;0.28;;;;;;;;;;4980151;28;20399;-73
2020/12/31 07:21:53;;;;;;;0.30;0.30;;;;;;;;;;4995969;28;20014;-73
2020/12/31 07:24:28;;;;;;;0.30;0.30;;;;;;;;;;4994953;28;20489;-73
2020/12/31 07:26:54;;;;;;;0.30;0.30;;;;;;;;;;5011564;28;20356;-73
2020/12/31 07:29:23;;;;;;;0.38;0.38;;;;;;;;;;4995051;28;20277;-74
2020/12/31 07:31:50;;;;;;;0.30;0.30;;;;;;;;;;5010425;28;20022;-74
2020/12/31 07:34:20;;;;;;;0.30;0.30;;;;;;;;;;5012328;28;20026;-74
2020/12/31 07:36:55;;;;;;;0.32;0.32;;;;;;;;;;5010554;28;20024;-78
2020/12/31 07:39:20;;;;;;;0.28;0.28;;;;;;;;;;4993702;28;20506;-77
2020/12/31 07:41:45;;;;;;;0.35;0.35;;;;;;;;;;4996430;28;20079;-77
2020/12/31 07:44:11;;;;;;;0.30;0.30;;;;;;;;;;4995319;28;20120;-75
2020/12/31 07:46:37;;;;;;;0.30;0.30;;;;;;;;;;5012105;28;20613;-73
2020/12/31 07:49:03;;;;;;;0.30;0.30;;;;;;;;;;5013870;28;20025;-76
2020/12/31 07:51:28;;;;;;;0.30;0.30;;;;;;;;;;4998545;28;20025;-75
2020/12/31 07:54:02;;;;;;;0.30;0.30;;;;;;;;;;5016511;28;20490;-77
2020/12/31 07:56:27;;;;;;;0.40;0.40;;;;;;;;;;5001234;28;20276;-77
2020/12/31 07:58:54;;;;;;;0.33;0.33;;;;;;;;;;5001092;28;20437;-78
2020/12/31 08:01:22;;;;;;;0.30;0.30;;;;;;;;;;5018339;28;20288;-78
2020/12/31 08:03:47;;;;;;;0.40;0.40;;;;;;;;;;5000432;28;20026;-77
2020/12/31 08:06:12;;;;;;;0.30;0.30;;;;;;;;;;5000107;28;20097;-76
2020/12/31 08:08:47;;;;;;;0.33;0.33;;;;;;;;;;5009120;28;20275;-81
2020/12/31 08:11:12;;;;;;;0.35;0.35;;;;;;;;;;5038111;28;20265;-80
2020/12/31 08:13:38;;;;;;;0.30;0.30;;;;;;;;;;5032494;28;20034;-81
2020/12/31 08:16:03;;;;;;;0.40;0.40;;;;;;;;;;5022574;28;20049;-80
2020/12/31 08:18:29;;;;;;;0.35;0.35;;;;;;;;;;5023012;28;20065;-80
2020/12/31 08:20:55;;;;;;;0.30;0.30;;;;;;;;;;5023617;28;20022;-80
2020/12/31 08:23:21;;;;;;;0.30;0.30;;;;;;;;;;5040171;28;20020;-82
2020/12/31 08:25:47;;;;;;;0.30;0.30;;;;;;;;;;5036779;28;20088;-80
2020/12/31 08:28:16;;;;;;;0.40;0.40;;;;;;;;;;5034543;28;20022;-79
2020/12/31 08:30:41;;;;;;;0.40;0.40;;;;;;;;;;5019731;28;20080;-81
2020/12/31 08:33:07;;;;;;;0.30;0.30;;;;;;;;;;5019172;28;20018;-80
2020/12/31 08:35:36;;;;;;;0.30;0.30;;;;;;;;;;5027482;28;20265;-79
2020/12/31 08:38:11;;;;;;;0.32;0.32;;;;;;;;;;5011709;28;20018;-78
2020/12/31 08:40:43;;;;;;;0.30;0.30;;;;;;;;;;5010239;28;20026;-79
2020/12/31 08:43:15;;;;;;;0.30;0.30;;;;;;;;;;5036162;28;20022;-82
2020/12/31 08:45:40;;;;;;;0.35;0.35;;;;;;;;;;5018108;28;20049;-79
2020/12/31 08:48:09;;;;;;;0.30;0.30;;;;;;;;;;5032595;28;20017;-80
2020/12/31 08:50:34;;;;;;;0.40;0.40;;;;;;;;;;5016508;28;20026;-79
2020/12/31 08:53:03;;;;;;;0.30;0.30;;;;;;;;;;5035869;28;20022;-79
2020/12/31 08:55:28;;;;;;;0.30;0.30;;;;;;;;;;5017417;28;20312;-79
2020/12/31 08:58:30;;;;;;;0.40;0.40;;;;;;;;;;5020984;28;20022;-80
2020/12/31 09:00:55;;;;;;;0.35;0.35;;;;;;;;;;4933421;29;20024;-79
2020/12/31 09:03:21;;;;;;;0.30;0.30;;;;;;;;;;4999998;28;20026;-79
2020/12/31 09:05:56;;;;;;;0.35;0.35;;;;;;;;;;5029875;28;20041;-79
2020/12/31 09:08:21;;;;;;;0.30;0.30;;;;;;;;;;5027283;28;20014;-80
2020/12/31 09:10:46;;;;;;;0.35;0.35;;;;;;;;;;5022890;28;20021;-79
2020/12/31 09:13:17;;;;;;;0.40;0.40;;;;;;;;;;5037226;28;20022;-81
2020/12/31 09:15:42;;;;;;;0.30;0.30;;;;;;;;;;5023001;28;20022;-80
2020/12/31 09:18:15;;;;;;;0.40;0.40;;;;;;;;;;5018802;28;20049;-80
2020/12/31 09:20:40;;;;;;;0.40;0.40;;;;;;;;;;5022020;28;20285;-81
2020/12/31 09:23:06;;;;;;;0.30;0.30;;;;;;;;;;5037395;28;20045;-79
2020/12/31 09:25:32;;;;;;;0.30;0.30;;;;;;;;;;5022577;28;20021;-80
2020/12/31 09:27:57;;;;;;;0.30;0.30;;;;;;;;;;5022585;28;20034;-81
2020/12/31 09:30:27;;;;;;;0.30;0.30;;;;;;;;;;5038780;28;20264;-80
2020/12/31 09:32:52;;;;;;;0.30;0.30;;;;;;;;;;5035670;28;20013;-80
2020/12/31 09:35:17;;;;;;;0.30;0.30;;;;;;;;;;5037015;28;20010;-80
2020/12/31 09:37:46;;;;;;;0.30;0.30;;;;;;;;;;5035722;28;20284;-79
2020/12/31 09:40:11;;;;;;;0.20;0.20;;;;;;;;;;5036937;28;20060;-80
2020/12/31 09:42:37;;;;;;;0.30;0.30;;;;;;;;;;5017821;28;20010;-80
2020/12/31 09:45:02;;;;;;;0.38;0.38;;;;;;;;;;5016129;28;20009;-80
2020/12/31 09:47:27;;;;;;;0.30;0.30;;;;;;;;;;5020985;28;20020;-81
2020/12/31 09:49:53;;;;;;;0.28;0.28;;;;;;;;;;5020627;28;20018;-80
2020/12/31 09:52:18;;;;;;;0.30;0.30;;;;;;;;;;5019070;28;20183;-79
2020/12/31 09:54:43;;;;;;;0.30;0.30;;;;;;;;;;5037468;28;20057;-80
2020/12/31 09:57:08;;;;;;;0.38;0.38;;;;;;;;;;5039097;28;20038;-80
2020/12/31 09:59:34;;;;;;;0.30;0.30;;;;;;;;;;5034663;28;20005;-80
2020/12/31 10:02:00;;;;;;;0.30;0.30;;;;;;;;;;5030231;28;19998;-79
2020/12/31 10:04:25;;;;;;;0.30;0.30;;;;;;;;;;5037361;28;20098;-79
2020/12/31 10:06:50;;;;;;;0.30;0.30;;;;;;;;;;5010451;28;20077;-79
2020/12/31 10:09:16;;;;;;;0.30;0.30;;;;;;;;;;5008863;28;20156;-79
2020/12/31 10:11:45;;;;;;;0.30;0.30;;;;;;;;;;5013750;28;20018;-79
2020/12/31 10:14:10;;;;;;;0.30;0.30;;;;;;;;;;5015393;28;20010;-82
2020/12/31 10:16:36;;;;;;;0.30;0.30;;;;;;;;;;5038553;28;20012;-81
2020/12/31 10:19:01;;;;;;;0.32;0.32;;;;;;;;;;5038141;28;20038;-81
2020/12/31 10:29:15;;;;;;;0.40;0.40;;;;;;;;;;5545462;22;20106;-80
2020/12/31 10:31:42;;;;;;;0.35;0.35;;;;;;;;;;5010939;28;20078;-81
2020/12/31 10:34:07;;;;;;;0.30;0.30;;;;;;;;;;4981991;28;20021;-80
2020/12/31 10:36:32;;;;;;;0.30;0.30;;;;;;;;;;5230900;22;20051;-75
2020/12/31 10:38:58;;;;;;;0.30;0.30;;;;;;;;;;4978869;28;20493;-81
2020/12/31 10:41:24;;;;;;;0.38;0.38;;;;;;;;;;4996055;28;20309;-81
2020/12/31 10:43:49;;;;;;;0.25;0.25;;;;;;;;;;4996409;28;20039;-80
2020/12/31 10:46:20;;;;;;;0.32;0.32;;;;;;;;;;4995484;28;20011;-79
2020/12/31 10:48:45;;;;;;;0.30;0.30;;;;;;;;;;4979513;28;20017;-79
2020/12/31 10:51:11;;;;;;;0.30;0.30;;;;;;;;;;5006425;28;20031;-80
2020/12/31 10:53:36;;;;;;;0.40;0.40;;;;;;;;;;4997379;28;20042;-80
2020/12/31 10:56:02;;;;;;;0.30;0.30;;;;;;;;;;4994531;28;20027;-79
2020/12/31 10:58:27;;;;;;;0.32;0.32;;;;;;;;;;4989298;28;20026;-79
2020/12/31 11:00:53;;;;;;;0.30;0.30;;;;;;;;;;4989880;28;20081;-78
2020/12/31 11:03:19;;;;;;;0.40;0.40;;;;;;;;;;4993049;28;20102;-79
2020/12/31 11:05:44;;;;;;;0.30;0.30;;;;;;;;;;4992137;28;20095;-79
2020/12/31 11:08:10;;;;;;;0.30;0.30;;;;;;;;;;4989237;28;20029;-79
2020/12/31 11:10:36;;;;;;;0.30;0.30;;;;;;;;;;4982715;28;20070;-79
2020/12/31 11:13:02;;;;;;;0.38;0.38;;;;;;;;;;4987704;28;20113;-79
2020/12/31 11:15:28;;;;;;;0.30;0.30;;;;;;;;;;4970565;28;20027;-80
2020/12/31 11:17:53;;;;;;;0.40;0.40;;;;;;;;;;4988307;28;20054;-80
2020/12/31 11:20:19;;;;;;;0.32;0.32;;;;;;;;;;4992761;28;20057;-78
2020/12/31 11:22:44;;;;;;;0.30;0.30;;;;;;;;;;4976799;28;20022;-78
2020/12/31 11:25:09;;;;;;;0.40;0.40;;;;;;;;;;4977062;28;20029;-77
2020/12/31 11:27:35;;;;;;;0.30;0.30;;;;;;;;;;4980020;28;20022;-79
2020/12/31 11:30:00;;;;;;;0.30;0.30;;;;;;;;;;4957603;28;20038;-78
2020/12/31 11:32:25;;;;;;;0.28;0.28;;;;;;;;;;4954516;29;20031;-77
2020/12/31 11:34:50;;;;;;;0.40;0.40;;;;;;;;;;4956700;28;20038;-78
2020/12/31 11:37:15;;;;;;;0.30;0.30;;;;;;;;;;4956711;28;20046;-77
2020/12/31 11:39:41;;;;;;;0.30;0.30;;;;;;;;;;4972668;28;20031;-77
2020/12/31 11:42:06;;;;;;;0.30;0.30;;;;;;;;;;4956860;28;20019;-78
2020/12/31 11:44:32;;;;;;;0.30;0.30;;;;;;;;;;4973112;28;20030;-78
2020/12/31 11:46:58;;;;;;;0.38;0.38;;;;;;;;;;4973952;28;20019;-77
2020/12/31 11:49:24;;;;;;;0.30;0.30;;;;;;;;;;4974168;28;20027;-79
2020/12/31 11:51:49;;;;;;;0.30;0.30;;;;;;;;;;4975938;28;20054;-79
2020/12/31 11:54:14;;;;;;;0.40;0.40;;;;;;;;;;4966642;28;20046;-80
2020/12/31 11:56:40;;;;;;;0.30;0.30;;;;;;;;;;4985593;28;20540;-79
2020/12/31 11:59:05;;;;;;;0.32;0.32;;;;;;;;;;4962687;28;20031;-79
2020/12/31 12:01:31;;;;;;;0.30;0.30;;;;;;;;;;4983575;28;20039;-82
2020/12/31 12:03:57;;;;;;;0.30;0.30;;;;;;;;;;4968955;28;20034;-79
2020/12/31 12:06:22;;;;;;;0.30;0.30;;;;;;;;;;4991758;28;20054;-80
2020/12/31 12:08:47;;;;;;;0.30;0.30;;;;;;;;;;4997603;28;20018;-77
2020/12/31 12:11:13;;;;;;;0.30;0.30;;;;;;;;;;4970532;28;20050;-79
2020/12/31 12:13:38;;;;;;;0.40;0.40;;;;;;;;;;4967930;29;20255;-75
2020/12/31 12:16:03;;;;;;;0.30;0.30;;;;;;;;;;4964951;28;20049;-75
2020/12/31 12:18:29;;;;;;;0.30;0.30;;;;;;;;;;4972714;28;20839;-76
2020/12/31 12:20:54;;;;;;;0.30;0.30;;;;;;;;;;4967280;28;20383;-75
2020/12/31 12:23:20;;;;;;;0.30;0.30;;;;;;;;;;4956567;28;20034;-76
2020/12/31 12:25:45;;;;;;;0.30;0.30;;;;;;;;;;4971881;28;20018;-76
2020/12/31 12:28:11;;;;;;;0.30;0.30;;;;;;;;;;4972599;28;20392;-76
2020/12/31 12:30:36;;;;;;;0.38;0.38;;;;;;;;;;4972211;28;20102;-76
2020/12/31 12:33:01;;;;;;;0.30;0.30;;;;;;;;;;4973874;28;20085;-76
2020/12/31 12:35:27;;;;;;;0.40;0.40;;;;;;;;;;4973398;28;20114;-76
2020/12/31 12:37:52;;;;;;;0.40;0.40;;;;;;;;;;4975029;28;20384;-76
2020/12/31 12:40:17;;;;;;;0.30;0.30;;;;;;;;;;4975577;28;20293;-77
2020/12/31 12:42:42;;;;;;;0.30;0.30;;;;;;;;;;4976539;28;20026;-77
2020/12/31 12:45:08;;;;;;;0.30;0.30;;;;;;;;;;4957458;29;20522;-76
2020/12/31 12:47:34;;;;;;;0.30;0.30;;;;;;;;;;4959644;28;20028;-77
2020/12/31 12:50:00;;;;;;;0.30;0.30;;;;;;;;;;4978140;28;20415;-77
2020/12/31 12:52:25;;;;;;;0.22;0.22;;;;;;;;;;4976846;28;20026;-76
2020/12/31 12:54:50;;;;;;;0.30;0.30;;;;;;;;;;4976898;28;20035;-76
2020/12/31 12:57:16;;;;;;;0.30;0.30;;;;;;;;;;4991867;28;20541;-77
2020/12/31 12:59:41;;;;;;;0.30;0.30;;;;;;;;;;4989372;28;20031;-77
2020/12/31 13:02:07;;;;;;;0.30;0.30;;;;;;;;;;4992505;28;20031;-77
2020/12/31 13:04:32;;;;;;;0.40;0.40;;;;;;;;;;4993325;28;20023;-76
2020/12/31 13:06:57;;;;;;;0.30;0.30;;;;;;;;;;4976262;28;20030;-77
2020/12/31 13:09:25;;;;;;;0.30;0.30;;;;;;;;;;4976675;28;20031;-77
2020/12/31 13:11:50;;;;;;;0.30;0.30;;;;;;;;;;4976796;28;20027;-77
2020/12/31 13:14:15;;;;;;;0.40;0.40;;;;;;;;;;4976688;28;20026;-77
2020/12/31 13:16:41;;;;;;;0.40;0.40;;;;;;;;;;4977101;28;20399;-77
2020/12/31 13:19:06;;;;;;;0.30;0.30;;;;;;;;;;4977137;28;20086;-77
2020/12/31 13:21:32;;;;;;;0.30;0.30;;;;;;;;;;4976720;28;20023;-78
2020/12/31 13:23:57;;;;;;;0.30;0.30;;;;;;;;;;4961942;28;20053;-81
2020/12/31 13:26:23;;;;;;;0.30;0.30;;;;;;;;;;4979667;28;20077;-79
2020/12/31 13:28:48;;;;;;;0.30;0.30;;;;;;;;;;4961019;28;20049;-77
2020/12/31 13:31:14;;;;;;;0.30;0.30;;;;;;;;;;4976285;28;20023;-77
2020/12/31 13:33:39;;;;;;;0.30;0.30;;;;;;;;;;4989493;28;20628;-77
2020/12/31 13:36:04;;;;;;;0.30;0.30;;;;;;;;;;4975333;28;20298;-77
2020/12/31 13:38:29;;;;;;;0.40;0.40;;;;;;;;;;4975541;28;20282;-77
2020/12/31 13:40:54;;;;;;;0.30;0.30;;;;;;;;;;4975606;28;20030;-77
2020/12/31 13:43:20;;;;;;;0.30;0.30;;;;;;;;;;4975554;28;20053;-77
2020/12/31 13:45:45;;;;;;;0.40;0.40;;;;;;;;;;4959556;28;20029;-77
2020/12/31 13:48:10;;;;;;;0.40;0.40;;;;;;;;;;4975132;28;20281;-77
2020/12/31 13:50:36;;;;;;;0.30;0.30;;;;;;;;;;4975660;28;20027;-76
2020/12/31 13:53:01;;;;;;;0.30;0.30;;;;;;;;;;4974170;28;20113;-77
2020/12/31 13:55:27;;;;;;;0.30;0.30;;;;;;;;;;4975498;28;20109;-76
2020/12/31 13:57:53;;;;;;;0.30;0.30;;;;;;;;;;4976267;28;20019;-77
2020/12/31 14:00:18;;;;;;;0.30;0.30;;;;;;;;;;4991239;28;20019;-77
2020/12/31 14:02:43;;;;;;;0.30;0.30;;;;;;;;;;4975380;28;20031;-76
2020/12/31 14:05:09;;;;;;;0.30;0.30;;;;;;;;;;4975111;28;20073;-77
2020/12/31 14:07:34;;;;;;;0.38;0.38;;;;;;;;;;4975102;28;20428;-77
2020/12/31 14:10:00;;;;;;;0.30;0.30;;;;;;;;;;4974499;28;20029;-76
2020/12/31 14:12:25;;;;;;;0.30;0.30;;;;;;;;;;4955534;29;20082;-77
2020/12/31 14:14:50;;;;;;;0.30;0.30;;;;;;;;;;4966683;28;20022;-76
2020/12/31 14:17:15;;;;;;;0.30;0.30;;;;;;;;;;4974109;28;20023;-76
2020/12/31 14:19:41;;;;;;;0.30;0.30;;;;;;;;;;4974073;28;20077;-77
2020/12/31 14:22:08;;;;;;;0.30;0.30;;;;;;;;;;4974395;28;20027;-77
2020/12/31 14:24:34;;;;;;;0.30;0.30;;;;;;;;;;4976271;28;20651;-76
2020/12/31 14:26:59;;;;;;;0.30;0.30;;;;;;;;;;4957944;28;20027;-76
2020/12/31 14:29:24;;;;;;;0.30;0.30;;;;;;;;;;4958124;28;20026;-77
2020/12/31 14:31:49;;;;;;;0.40;0.40;;;;;;;;;;4958226;28;20041;-77
2020/12/31 14:34:15;;;;;;;0.30;0.30;;;;;;;;;;4974184;28;20383;-77
2020/12/31 14:36:40;;;;;;;0.30;0.30;;;;;;;;;;4973298;28;20066;-77
2020/12/31 14:39:07;;;;;;;0.30;0.30;;;;;;;;;;4974262;28;20134;-77
2020/12/31 14:41:52;;;;;;;0.30;0.30;;;;;;;;;;4957798;28;20122;-77
2020/12/31 14:44:18;;;;;;;0.30;0.30;;;;;;;;;;4957953;28;20368;-77
2020/12/31 14:46:44;;;;;;;0.30;0.30;;;;;;;;;;4974988;28;20106;-77